Aviation Digital Data Service (ADDS)

Output produced by METARs form (1422 UTC 30 October 2014)
found at http://www.aviationweather.gov/adds/metars/
 
KLNS 301353Z 30007KT 10SM CLR 09/06 A3005 RMK AO2 SLP176 T00940056
KLNS 301253Z 29003KT 6SM BR CLR 06/05 A3004 RMK AO2 SLP175 T00610050
KLNS 301153Z 29006KT 4SM BR CLR 04/03 A3003 RMK AO2 SLP169 70005 T00390033 10072 20039 51015
KLNS 301139Z 27004KT 3SM BR CLR 04/04 A3002 RMK AO2 T00390039
KLNS 301130Z 26005KT 2 1/2SM BR FEW003 04/03 A3002 RMK AO2 T00390033
KLNS 301121Z 27005KT 1 1/4SM BR FEW003 04/04 A3002 RMK AO2 T00440039
KLNS 301110Z 27006KT 1/2SM FG VV003 04/04 A3002 RMK AO2 T00440039
KLNS 301100Z 28006KT 3/4SM BR CLR 04/04 A3001 RMK AO2 T00390039
KLNS 301053Z 27006KT 2SM BR FEW002 04/04 A3001 RMK AO2 SLP165 T00440039
KLNS 301040Z 28006KT 2SM BR FEW002 SCT075 04/04 A3001 RMK AO2 T00440044
KLNS 301024Z 28006KT 1/2SM FG SCT002 BKN075 05/04 A3001 RMK AO2 T00500044
KLNS 301016Z 30006KT 1SM BR FEW002 BKN075 05/05 A3001 RMK AO2 T00500050
KLNS 300959Z 27005KT 1/2SM FG SCT002 OVC070 06/06 A3000 RMK AO2 T00560056
KLNS 300953Z AUTO 28005KT 1/4SM FG BKN002 OVC070 06/06 A3000 RMK AO2 SLP160 T00560056
KLNS 300853Z AUTO 26004KT 1/4SM FG VV002 06/06 A2998 RMK AO2 SLP153 T00610056 53001
KLNS 300753Z AUTO 28005KT 1/4SM FG VV002 07/06 A2997 RMK AO2 SLP151 T00670061
KLNS 300653Z AUTO 28005KT 1/4SM FG VV002 07/07 A2998 RMK AO2 SLP152 T00670067
KLNS 300600Z AUTO 29005KT M1/4SM FG VV001 07/07 A2998 RMK AO2 T00720067
KLNS 300553Z AUTO 27004KT M1/4SM FG VV002 07/07 A2998 RMK AO2 SLP152 T00720067 10094 20061 55001
KLNS 300453Z AUTO 29004KT M1/4SM FG VV002 07/06 A2998 RMK AO2 SLP152 T00720061 401670061
KLNS 300440Z AUTO 29003KT 1/4SM FG BKN003 BKN070 07/06 A2998 RMK AO2 T00670061
KLNS 300429Z AUTO 00000KT 1/4SM FG BKN005 BKN070 08/08 A2997 RMK AO2 T00830078
KLNS 300401Z AUTO 00000KT 3/4SM BR FEW005 OVC070 08/08 A2998 RMK AO2 T00830078
KLNS 300358Z AUTO 00000KT 1 3/4SM BR OVC070 08/08 A2998 RMK AO2 T00830078
KLNS 300353Z AUTO 00000KT 3SM BR OVC070 08/08 A2998 RMK AO2 SLP152 T00830078
KLNS 300343Z AUTO 00000KT 3SM BR OVC070 08/08 A2998 RMK AO2 T00830078
KLNS 300332Z AUTO 00000KT 2SM BR OVC070 08/07 A2998 RMK AO2 T00780072
KLNS 300253Z AUTO 00000KT 4SM BR OVC070 09/09 A2998 RMK AO2 SLP152 T00940089 51003
KLNS 300206Z 00000KT 3SM BR OVC070 09/09 A2998 RMK AO2 T00890089
KLNS 300153Z 30003KT 2SM BR OVC065 09/08 A2998 RMK AO2 SLP152 T00890083
KLNS 300124Z 29004KT 3/4SM BR OVC065 09/09 A2998 RMK AO2 T00890089
KLNS 300053Z 30003KT 1/4SM FG FEW003 FEW065 08/08 A2997 RMK AO2 SLP149 T00830083
KLNS 300051Z 30003KT 1/2SM FG FEW003 FEW065 08/08 A2997 RMK AO2
KLNS 300048Z 29003KT 1SM BR VV003 09/09 A2997 RMK AO2
KLNS 300042Z 00000KT 2 1/2SM BR CLR 09/09 A2997 RMK AO2 T00940089
KLNS 300035Z 28003KT 3SM BR CLR 09/09 A2997 RMK AO2 T00940089
KLNS 300024Z 25003KT 1 1/4SM BR CLR 09/09 A2997 RMK AO2 T00890089
KLNS 300001Z 28004KT 1/2SM FG CLR 08/08 A2997 RMK AO2 T00830083
KLNS 292353Z 29003KT 1SM BR CLR 09/09 A2997 RMK AO2 SLP149 60004 T00940089 10128 20094 53015
KLNS 292345Z 28003KT 3/4SM BR VV004 09/09 A2997 RMK AO2 T00940089
KLNS 292342Z 28003KT 1 1/2SM BR FEW004 10/09 A2997 RMK AO2 T01000094
KLNS 292253Z 23004KT 10SM CLR 11/09 A2995 RMK AO2 SLP141 T01060094
KLNS 292153Z 24004KT 10SM CLR 12/10 A2993 RMK AO2 SLP134 T01170100
KLNS 292053Z 23004KT 10SM FEW065 BKN100 12/10 A2992 RMK AO2 SLP133 60004 T01220100 58004
KLNS 291953Z 24005KT 10SM BKN060 OVC080 12/10 A2993 RMK AO2 RAE45 SLP134 P0001 T01220100
KLNS 291853Z 30006KT 7SM -RA SCT055 OVC090 12/09 A2994 RMK AO2 SLP137 P0003 T01220094
KLNS 291753Z 28006KT 10SM -RA OVC055 13/09 A2994 RMK AO2 SLP137 P0000 60001 T01280094 10161 20122 58009
KLNS 291653Z 29008KT 10SM -RA OVC044 12/09 A2996 RMK AO2 RAB18 SLP146 P0001 T01220089
KLNS 291553Z 29014KT 10SM FEW060 SCT075 BKN090 15/07 A2997 RMK AO2 SLP146 T01500072
KLNS 291453Z 32011KT 10SM FEW042 BKN070 OVC080 16/08 A2996 RMK AO2 SLP145 T01560083 51019
KLNS 291353Z 32012KT 10SM BKN070 16/09 A2995 RMK AO2 SLP142 T01560094
KLNS 291253Z 29008KT 10SM CLR 16/11 A2993 RMK AO2 SLP134 T01560111
KLNS 291153Z 32003KT 5SM BR BKN065 BKN090 13/11 A2991 RMK AO2 SLP127 T01330111 10150 20117 51006
KLNS 291053Z 00000KT 6SM BR BKN080 OVC095 13/12 A2990 RMK AO2 SLP123 T01330117
KLNS 290953Z 00000KT 4SM BR SCT085 BKN110 13/12 A2990 RMK AO2 SLP125 T01280117
KLNS 290853Z 00000KT 6SM BR CLR 13/12 A2989 RMK AO2 SLP121 T01330122 51005
KLNS 290753Z 00000KT 8SM SCT120 13/12 A2989 RMK AO2 SLP120 T01330117
KLNS 290653Z 05003KT 7SM CLR 13/12 A2989 RMK AO2 SLP119 T01330117
KLNS 290553Z 11003KT 8SM CLR 13/11 A2988 RMK AO2 SLP116 T01330111 10194 20133 58010
KLNS 290453Z 00000KT 10SM CLR 16/12 A2989 RMK AO2 SLP120 T01610122 402280078
KLNS 290353Z 00000KT 10SM CLR 18/12 A2990 RMK AO2 SLP122 T01780122
KLNS 290253Z 22005KT 10SM CLR 18/12 A2991 RMK AO2 SLP126 T01830122 55003